Startpagina
METAR-TAF:

METAR-TAF

Vliegvelden :

Gamèti, Northwest Territories, Canada

breedte: 64-06-58N, lengte: 117-18-35W, hoogte: 221 m

Actueel weer

Dit bericht is 15 uur en het 7 minuten geleden gemaakt, om 20:00 UTC
Wind 2 kt uit variabele richting
Temperatuur -14°C
Vochtigheid 46%
Druk 1020 hPa
Zicht: 24.1 km
Onbewolkt

METAR: CYRA 042000Z VRB02KT 15SM SKC M14/M23 A3013 RMK S0 AFT 15UTC / 43 / SNW CVR/MUCH LOOSE LAST STFD OBS/NEXT 051400 UTC SLP232

Tijdstip: 05:07 (11:07 UTC)

Verwachting

Dit bericht is 18 uur en het 29 minuten geleden gemaakt, om 16:38 UTC
Verwachting geldig van 04 om 17 UTC tot 04 om 20 UTC
Wind 3 kt uit variabele richting
Zicht: 10 km
Verspreide wolken op 6000 ft

TAF: CYRA 041638Z 0417/0420 VRB03KT P6SM SCT060 RMK NXT FCST WILL BE ISSUED AT 051545Z

Waarnemingen en weersverwachtingen van meer dan 4000 vliegvelden (METAR en TAF).

De beschikbare stations zijn de gele en rode punten op de kaart.

Ga met uw muis naar het station om de naam te zien.

Klik dan om waarnemingen en weersverwachtingen te zien.

kaart wijzigen: klik op de groene knoppen met een zwart kruis om in te zoomen, op de groene knop met een streepje om uit te zoomen of op de groene pijlen voor aangrenzende kaarten.


METAR-TAF: